createdAt,value
2018-08-30T00:00:43.129Z,80.00
2018-08-30T00:01:46.331Z,78.25
2018-08-30T00:02:49.630Z,82.25
2018-08-30T00:03:52.763Z,69.00
2018-08-30T00:04:57.049Z,67.50
2018-08-30T00:06:02.920Z,67.50
2018-08-30T00:07:06.436Z,73.25
2018-08-30T00:08:09.526Z,73.00
2018-08-30T00:09:12.402Z,70.50
2018-08-30T00:10:15.258Z,73.50
2018-08-30T00:11:18.126Z,69.00
2018-08-30T00:12:21.035Z,71.75
2018-08-30T00:13:24.510Z,72.50
2018-08-30T00:14:27.395Z,66.00
2018-08-30T00:15:30.267Z,64.00
2018-08-30T00:16:33.305Z,59.25
2018-08-30T00:17:37.210Z,71.50
2018-08-30T00:18:41.482Z,65.00
2018-08-30T00:19:44.728Z,67.75
2018-08-30T00:20:48.430Z,62.25
2018-08-30T00:21:52.081Z,52.75
2018-08-30T00:22:55.086Z,46.25
2018-08-30T00:23:59.091Z,45.25
2018-08-30T00:25:02.261Z,67.00
2018-08-30T00:26:07.690Z,49.75
2018-08-30T00:27:10.612Z,46.75
2018-08-30T00:28:13.488Z,51.00
2018-08-30T00:29:16.408Z,50.50
2018-08-30T00:30:19.314Z,48.00
2018-08-30T00:31:22.198Z,39.50
2018-08-30T00:32:25.668Z,53.00
2018-08-30T00:33:28.541Z,47.75
2018-08-30T00:34:31.554Z,45.50
2018-08-30T00:35:34.457Z,45.00
2018-08-30T00:36:37.353Z,45.25
2018-08-30T00:37:40.217Z,48.50
2018-08-30T00:38:43.681Z,50.25
2018-08-30T00:39:46.865Z,45.25
2018-08-30T00:40:49.796Z,43.25
2018-08-30T00:41:52.690Z,41.00
2018-08-30T00:42:56.514Z,40.75
2018-08-30T00:43:59.481Z,35.50
2018-08-30T00:45:03.414Z,37.25
2018-08-30T00:46:06.324Z,34.25
2018-08-30T00:47:10.307Z,33.75
2018-08-30T00:48:27.625Z,37.00
2018-08-30T00:49:31.053Z,34.00
2018-08-30T00:50:34.261Z,32.00
2018-08-30T00:51:42.243Z,33.75
2018-08-30T00:52:47.252Z,28.75
2018-08-30T00:53:50.742Z,37.25
2018-08-30T00:54:55.955Z,37.50
2018-08-30T00:55:59.648Z,38.75
2018-08-30T00:57:03.234Z,37.50
2018-08-30T00:58:07.382Z,34.00
2018-08-30T00:59:11.429Z,32.50
2018-08-30T01:00:14.337Z,30.25
2018-08-30T01:01:17.249Z,30.50
2018-08-30T01:02:20.190Z,28.75
2018-08-30T01:03:24.011Z,28.50
2018-08-30T01:04:27.293Z,28.75
2018-08-30T01:05:30.154Z,30.50
2018-08-30T01:06:33.006Z,27.25
2018-08-30T01:07:38.852Z,25.75
2018-08-30T01:08:41.802Z,24.75
2018-08-30T01:09:45.685Z,21.75
2018-08-30T01:10:49.072Z,22.25
2018-08-30T01:11:51.933Z,21.25
2018-08-30T01:12:56.709Z,25.50
2018-08-30T01:13:59.643Z,26.75
2018-08-30T01:15:02.693Z,22.75
2018-08-30T01:16:05.560Z,19.50
2018-08-30T01:17:08.900Z,13.75
2018-08-30T01:18:11.818Z,21.00
2018-08-30T01:19:14.851Z,15.50
2018-08-30T01:20:17.868Z,14.00
2018-08-30T01:21:20.701Z,12.25
2018-08-30T01:22:23.669Z,13.50
2018-08-30T01:23:26.997Z,13.75
2018-08-30T01:24:29.971Z,14.00
2018-08-30T01:25:34.268Z,13.25
2018-08-30T01:26:38.105Z,13.00
2018-08-30T01:27:40.948Z,12.00
2018-08-30T01:28:44.434Z,11.00
2018-08-30T01:29:48.556Z,11.50
2018-08-30T01:30:51.433Z,9.50
2018-08-30T01:31:54.341Z,13.00
2018-08-30T01:32:57.189Z,9.00
2018-08-30T01:34:00.858Z,14.00
2018-08-30T01:35:03.970Z,12.50
2018-08-30T01:36:07.279Z,11.00
2018-08-30T01:37:10.790Z,9.50
2018-08-30T01:38:14.576Z,10.00
2018-08-30T01:39:17.959Z,12.75
2018-08-30T01:40:22.290Z,13.25
2018-08-30T01:41:27.805Z,9.00
2018-08-30T01:42:30.678Z,10.00
2018-08-30T01:43:34.583Z,11.00
2018-08-30T01:44:38.892Z,9.00
2018-08-30T01:45:41.933Z,10.00
2018-08-30T01:46:44.829Z,9.00
2018-08-30T01:47:49.678Z,9.00
2018-08-30T01:48:53.408Z,10.50
2018-08-30T01:49:56.545Z,12.50
2018-08-30T01:50:59.544Z,10.00
2018-08-30T01:52:02.464Z,9.75
2018-08-30T01:53:06.437Z,10.75
2018-08-30T01:54:09.782Z,10.25
2018-08-30T01:55:12.649Z,10.50
2018-08-30T01:56:16.428Z,10.00
2018-08-30T01:57:19.423Z,11.00
2018-08-30T01:58:22.264Z,10.75
2018-08-30T01:59:25.120Z,11.50
2018-08-30T02:00:29.259Z,11.50
2018-08-30T02:01:32.117Z,11.00
2018-08-30T02:02:35.198Z,13.00
2018-08-30T02:03:39.119Z,10.50
2018-08-30T02:04:42.914Z,12.50
2018-08-30T02:05:45.959Z,9.25
2018-08-30T02:06:49.571Z,7.00
2018-08-30T02:07:52.450Z,10.25
2018-08-30T02:08:55.432Z,5.00
2018-08-30T02:09:58.288Z,7.75
2018-08-30T02:11:01.130Z,7.75
2018-08-30T02:12:04.014Z,5.00
2018-08-30T02:13:07.189Z,6.00
2018-08-30T02:14:10.058Z,5.50
2018-08-30T02:15:13.265Z,7.75
2018-08-30T02:16:16.850Z,6.50
2018-08-30T02:17:19.729Z,6.50
2018-08-30T02:18:22.603Z,5.00
2018-08-30T02:19:26.254Z,6.50
2018-08-30T02:20:29.085Z,7.00
2018-08-30T02:21:31.953Z,7.00
2018-08-30T02:22:34.804Z,6.50
2018-08-30T02:23:37.671Z,7.50
2018-08-30T02:24:41.150Z,7.00
2018-08-30T02:25:44.337Z,7.25
2018-08-30T02:26:47.184Z,8.50
2018-08-30T02:27:50.039Z,8.50
2018-08-30T02:28:52.888Z,7.00
2018-08-30T02:29:55.738Z,7.00
2018-08-30T02:30:58.613Z,5.00
2018-08-30T02:32:01.784Z,8.00
2018-08-30T02:33:04.684Z,7.25
2018-08-30T02:34:07.553Z,7.00
2018-08-30T02:35:10.418Z,5.50
2018-08-30T02:36:13.344Z,7.00
2018-08-30T02:37:16.236Z,7.50
2018-08-30T02:38:19.433Z,7.25
2018-08-30T02:39:22.311Z,6.50
2018-08-30T02:40:25.157Z,7.00
2018-08-30T02:41:28.017Z,5.50
2018-08-30T02:42:30.846Z,4.75
2018-08-30T02:43:33.710Z,4.00
2018-08-30T02:44:37.887Z,5.50
2018-08-30T02:45:40.752Z,4.00
2018-08-30T02:46:43.629Z,5.00
2018-08-30T02:47:46.510Z,5.00
2018-08-30T02:48:49.410Z,4.75
2018-08-30T02:49:52.261Z,4.50
2018-08-30T02:50:56.474Z,4.00
2018-08-30T02:51:59.364Z,4.00
2018-08-30T02:53:02.195Z,4.00
2018-08-30T02:54:05.045Z,4.00
2018-08-30T02:55:07.905Z,5.00
2018-08-30T02:56:10.793Z,4.00
2018-08-30T02:57:14.104Z,3.50
2018-08-30T02:58:16.980Z,2.00
2018-08-30T02:59:19.892Z,4.00
2018-08-30T03:00:23.048Z,5.00
2018-08-30T03:01:26.647Z,4.00
2018-08-30T03:02:29.641Z,5.00
2018-08-30T03:03:32.909Z,5.00
2018-08-30T03:04:35.769Z,4.75
2018-08-30T03:05:38.630Z,3.00
2018-08-30T03:06:41.502Z,5.00
2018-08-30T03:07:44.404Z,4.00
2018-08-30T03:08:47.304Z,4.50
2018-08-30T03:09:50.607Z,5.00
2018-08-30T03:10:53.495Z,4.75
2018-08-30T03:11:56.388Z,6.00
2018-08-30T03:12:59.229Z,7.00
2018-08-30T03:14:02.131Z,6.50
2018-08-30T03:15:05.111Z,4.25
2018-08-30T03:16:07.976Z,4.50
2018-08-30T03:17:10.829Z,4.00
2018-08-30T03:18:13.717Z,4.25
2018-08-30T03:19:16.558Z,4.75
2018-08-30T03:20:19.416Z,5.50
2018-08-30T03:21:22.914Z,4.00
2018-08-30T03:22:26.257Z,4.25
2018-08-30T03:23:29.113Z,6.50
2018-08-30T03:24:31.976Z,7.00
2018-08-30T03:25:34.818Z,4.00
2018-08-30T03:26:37.669Z,5.50
2018-08-30T03:27:40.932Z,8.00
2018-08-30T03:28:44.289Z,7.00
2018-08-30T03:29:47.173Z,9.00
2018-08-30T03:30:50.179Z,7.00
2018-08-30T03:31:53.001Z,7.00
2018-08-30T03:32:55.857Z,7.00
2018-08-30T03:33:58.722Z,11.25
2018-08-30T03:35:02.002Z,8.00
2018-08-30T03:36:04.861Z,9.75
2018-08-30T03:37:07.725Z,7.50
2018-08-30T03:38:10.598Z,8.00
2018-08-30T03:39:13.448Z,9.00
2018-08-30T03:40:16.327Z,13.25
2018-08-30T03:41:19.615Z,8.50
2018-08-30T03:42:22.484Z,11.50
2018-08-30T03:43:25.368Z,12.00
2018-08-30T03:44:28.242Z,13.75
2018-08-30T03:45:31.100Z,10.00
2018-08-30T03:46:34.043Z,12.25
2018-08-30T03:47:37.341Z,13.25
2018-08-30T03:48:40.194Z,15.75
2018-08-30T03:49:43.093Z,10.00
2018-08-30T03:50:46.501Z,13.75
2018-08-30T03:51:49.367Z,12.00
2018-08-30T03:52:52.261Z,14.50
2018-08-30T03:53:55.544Z,17.00
2018-08-30T03:54:58.498Z,16.75
2018-08-30T03:56:01.369Z,17.25
2018-08-30T03:57:04.473Z,15.50
2018-08-30T03:58:07.367Z,25.00
2018-08-30T03:59:10.225Z,17.50
2018-08-30T04:00:13.411Z,17.25
2018-08-30T04:01:16.926Z,23.00
2018-08-30T04:02:19.774Z,21.25
2018-08-30T04:03:24.453Z,20.50
2018-08-30T04:04:27.573Z,22.00
2018-08-30T04:05:30.442Z,17.75
2018-08-30T04:06:33.713Z,24.25
2018-08-30T04:07:36.658Z,24.75
2018-08-30T04:08:39.534Z,24.75
2018-08-30T04:09:43.253Z,29.00
2018-08-30T04:10:47.093Z,24.25
2018-08-30T04:11:50.126Z,25.00
2018-08-30T04:12:53.424Z,26.25
2018-08-30T04:13:56.267Z,27.50
2018-08-30T04:14:59.240Z,29.00
2018-08-30T04:16:02.098Z,27.00
2018-08-30T04:17:04.987Z,33.25
2018-08-30T04:18:07.852Z,24.25
2018-08-30T04:19:11.059Z,30.00
2018-08-30T04:20:13.965Z,30.00
2018-08-30T04:21:16.817Z,26.75
2018-08-30T04:22:19.691Z,30.75
2018-08-30T04:23:22.548Z,29.25
2018-08-30T04:24:25.716Z,26.50
2018-08-30T04:25:29.817Z,30.75
2018-08-30T04:26:33.820Z,35.25
2018-08-30T04:27:36.698Z,35.00
2018-08-30T04:28:39.576Z,30.75
2018-08-30T04:29:42.445Z,31.50
2018-08-30T04:30:45.418Z,36.25
2018-08-30T04:31:48.700Z,34.50
2018-08-30T04:32:51.558Z,33.25
2018-08-30T04:33:54.581Z,35.00
2018-08-30T04:34:58.476Z,34.00
2018-08-30T04:36:01.350Z,32.25
2018-08-30T04:37:04.216Z,30.50
2018-08-30T04:38:07.496Z,30.00
2018-08-30T04:39:10.360Z,31.75
2018-08-30T04:40:13.818Z,31.00
2018-08-30T04:41:16.697Z,34.50
2018-08-30T04:42:19.635Z,30.25
2018-08-30T04:43:22.549Z,39.00
2018-08-30T04:44:25.743Z,34.75
2018-08-30T04:45:30.487Z,36.25
2018-08-30T04:46:33.356Z,38.00
2018-08-30T04:47:36.491Z,39.75
2018-08-30T04:48:39.765Z,42.00
2018-08-30T04:49:42.652Z,31.75
2018-08-30T04:50:45.516Z,36.50
2018-08-30T04:51:48.407Z,33.50
2018-08-30T04:52:51.269Z,44.50
2018-08-30T04:53:54.231Z,41.00
2018-08-30T04:54:57.106Z,35.50
2018-08-30T04:55:59.993Z,35.50
2018-08-30T04:57:03.314Z,34.25
2018-08-30T04:58:06.201Z,40.00
2018-08-30T04:59:09.060Z,38.25
2018-08-30T05:00:11.969Z,45.50
2018-08-30T05:01:14.816Z,40.00
2018-08-30T05:02:17.709Z,37.75
2018-08-30T05:03:20.957Z,40.25
2018-08-30T05:04:24.249Z,41.25
2018-08-30T05:05:27.744Z,43.50
2018-08-30T05:06:30.657Z,46.25
2018-08-30T05:07:33.563Z,45.75
2018-08-30T05:08:36.424Z,37.25
2018-08-30T05:09:39.656Z,38.75
2018-08-30T05:10:42.609Z,42.50
2018-08-30T05:11:46.147Z,46.50
2018-08-30T05:12:49.037Z,40.25
2018-08-30T05:13:51.946Z,41.50
2018-08-30T05:14:54.826Z,38.75
2018-08-30T05:15:58.145Z,37.25
2018-08-30T05:17:02.281Z,41.00
2018-08-30T05:18:07.007Z,42.25
2018-08-30T05:19:11.819Z,40.50
2018-08-30T05:20:14.862Z,37.75
2018-08-30T05:21:17.805Z,34.25
2018-08-30T05:22:21.115Z,38.75
2018-08-30T05:23:24.149Z,42.00
2018-08-30T05:24:27.251Z,42.25
2018-08-30T05:25:30.310Z,38.50
2018-08-30T05:26:33.837Z,41.00
2018-08-30T05:27:36.794Z,48.25
2018-08-30T05:28:40.411Z,38.75
2018-08-30T05:29:43.394Z,42.75
2018-08-30T05:30:46.390Z,42.00
2018-08-30T05:34:04.295Z,42.75
2018-08-30T05:35:07.492Z,38.00
2018-08-30T05:36:10.420Z,45.50
2018-08-30T05:37:13.456Z,46.00
2018-08-30T05:38:21.344Z,39.25
2018-08-30T05:39:25.421Z,47.00
2018-08-30T05:40:28.962Z,38.00
2018-08-30T05:41:32.239Z,44.25
2018-08-30T05:42:35.350Z,37.50
2018-08-30T05:43:38.232Z,43.00
2018-08-30T05:44:41.158Z,44.25
2018-08-30T05:45:44.147Z,46.00
2018-08-30T05:46:47.612Z,47.75
2018-08-30T05:47:51.417Z,45.75
2018-08-30T05:48:54.454Z,48.00
2018-08-30T05:49:58.143Z,45.75
2018-08-30T05:51:03.287Z,50.00
2018-08-30T05:52:08.030Z,42.75
2018-08-30T05:53:11.163Z,45.75
2018-08-30T05:54:15.480Z,42.25
2018-08-30T05:55:19.715Z,42.25
2018-08-30T05:56:25.048Z,47.25
2018-08-30T05:57:28.852Z,43.00
2018-08-30T05:58:31.816Z,43.75
2018-08-30T05:59:34.777Z,47.50
2018-08-30T06:00:38.188Z,45.25
2018-08-30T06:01:41.089Z,49.25
2018-08-30T06:02:45.627Z,45.25
2018-08-30T06:03:48.594Z,41.50
2018-08-30T06:04:51.593Z,48.50
2018-08-30T06:05:54.611Z,49.50
2018-08-30T06:06:58.030Z,39.75
2018-08-30T06:08:00.924Z,50.75
2018-08-30T06:09:05.357Z,45.50
2018-08-30T06:10:08.226Z,43.50
2018-08-30T06:11:11.155Z,49.25
2018-08-30T06:12:14.786Z,48.75
2018-08-30T06:13:18.197Z,51.25
2018-08-30T06:14:21.915Z,44.25
2018-08-30T06:15:24.887Z,55.00
2018-08-30T06:16:27.928Z,49.25
2018-08-30T06:17:30.822Z,48.50
2018-08-30T06:18:34.010Z,44.25
2018-08-30T06:19:39.006Z,53.00
2018-08-30T06:20:42.379Z,45.50
2018-08-30T06:21:45.416Z,47.50
2018-08-30T06:22:48.314Z,48.50
2018-08-30T06:23:51.502Z,52.00
2018-08-30T06:24:55.262Z,51.00
2018-08-30T06:25:58.846Z,48.75
2018-08-30T06:27:03.729Z,50.50
2018-08-30T06:28:06.792Z,43.50
2018-08-30T06:29:10.051Z,41.25
2018-08-30T06:30:13.026Z,50.25
2018-08-30T06:31:18.067Z,41.25
2018-08-30T06:32:23.335Z,56.50
2018-08-30T06:33:35.484Z,45.25
2018-08-30T06:34:40.851Z,42.25
2018-08-30T06:35:44.676Z,51.75
2018-08-30T06:36:47.615Z,50.75
2018-08-30T06:37:52.764Z,44.75
2018-08-30T06:38:56.652Z,46.25
2018-08-30T06:40:01.497Z,44.25
2018-08-30T06:41:06.242Z,48.75
2018-08-30T06:42:10.285Z,51.25
2018-08-30T06:43:15.059Z,54.00
2018-08-30T06:44:20.566Z,47.50
2018-08-30T06:45:27.383Z,46.25
2018-08-30T06:46:31.284Z,44.50
2018-08-30T06:47:34.253Z,50.00
2018-08-30T06:48:38.471Z,50.50
2018-08-30T06:49:41.698Z,53.25
2018-08-30T06:50:44.708Z,50.75
2018-08-30T06:51:48.118Z,47.75
2018-08-30T06:52:51.240Z,52.75
2018-08-30T06:53:54.324Z,50.50
2018-08-30T06:54:57.245Z,46.25
2018-08-30T06:56:00.722Z,46.50
2018-08-30T06:57:04.304Z,43.75
2018-08-30T06:58:08.903Z,54.50
2018-08-30T06:59:12.809Z,50.25
2018-08-30T07:00:17.504Z,41.25
2018-08-30T07:01:21.310Z,48.75
2018-08-30T07:02:24.484Z,42.50
2018-08-30T07:03:27.509Z,40.75
2018-08-30T07:04:32.137Z,48.00
2018-08-30T07:05:35.451Z,52.50
2018-08-30T07:06:38.509Z,45.00
2018-08-30T07:07:41.466Z,51.00
2018-08-30T07:08:44.434Z,51.50
2018-08-30T07:09:47.430Z,54.75
2018-08-30T07:10:50.748Z,53.25
2018-08-30T07:11:53.793Z,52.00
2018-08-30T07:12:56.708Z,55.50
2018-08-30T07:13:59.645Z,50.00
2018-08-30T07:15:04.210Z,56.75
2018-08-30T07:16:07.132Z,44.00
2018-08-30T07:17:09.997Z,60.25
2018-08-30T07:18:12.889Z,57.75
2018-08-30T07:19:15.780Z,60.00
2018-08-30T07:20:18.679Z,54.25
2018-08-30T07:21:21.568Z,54.25
2018-08-30T07:22:24.808Z,54.50
2018-08-30T07:23:27.663Z,54.75
2018-08-30T07:24:30.551Z,54.00
2018-08-30T07:25:34.081Z,48.50
2018-08-30T07:26:36.926Z,53.00
2018-08-30T07:27:39.825Z,46.00
2018-08-30T07:29:55.041Z,51.75
2018-08-30T07:30:57.921Z,51.25
2018-08-30T07:32:00.800Z,51.00
2018-08-30T07:33:03.645Z,55.50
2018-08-30T07:34:07.874Z,44.75
2018-08-30T07:35:10.916Z,52.00
2018-08-30T07:36:14.414Z,48.50
2018-08-30T07:37:17.269Z,49.75
2018-08-30T07:38:20.130Z,51.00
2018-08-30T07:39:23.611Z,52.75
2018-08-30T07:40:26.936Z,50.25
2018-08-30T07:41:29.789Z,45.50
2018-08-30T07:42:33.692Z,47.50
2018-08-30T07:43:36.681Z,51.00
2018-08-30T07:44:40.780Z,59.25
2018-08-30T07:45:43.962Z,56.25
2018-08-30T07:46:47.495Z,55.00
2018-08-30T07:47:51.239Z,55.50
2018-08-30T07:48:54.213Z,49.50
2018-08-30T07:49:57.217Z,45.50
2018-08-30T07:51:00.295Z,48.50
2018-08-30T07:52:03.203Z,53.00
2018-08-30T07:53:09.525Z,54.25
2018-08-30T07:54:12.436Z,37.50
2018-08-30T07:55:15.335Z,49.00
2018-08-30T07:56:18.353Z,56.50
2018-08-30T07:57:21.280Z,47.75
2018-08-30T07:58:24.215Z,41.75
2018-08-30T07:59:27.517Z,48.25
2018-08-30T08:00:30.453Z,44.25
2018-08-30T08:08:54.425Z,47.00
2018-08-30T08:09:57.921Z,45.25
2018-08-30T08:11:00.800Z,46.50
2018-08-30T08:12:03.737Z,45.00
2018-08-30T08:13:09.676Z,51.00
2018-08-30T08:14:13.900Z,50.50
2018-08-30T08:15:18.508Z,47.50
2018-08-30T08:16:21.507Z,47.50
2018-08-30T08:17:24.528Z,52.00
2018-08-30T08:18:27.449Z,42.75
2018-08-30T08:19:33.687Z,45.00
2018-08-30T08:20:36.913Z,42.50
2018-08-30T08:21:42.188Z,43.00
2018-08-30T08:22:49.965Z,44.25
2018-08-30T08:23:55.350Z,36.00
2018-08-30T08:24:59.788Z,41.50
2018-08-30T08:26:04.963Z,37.50
2018-08-30T08:27:09.369Z,35.50
2018-08-30T08:28:13.782Z,44.50
2018-08-30T08:29:18.579Z,42.25
2018-08-30T08:30:22.478Z,42.00
2018-08-30T08:31:29.743Z,42.75
2018-08-30T08:32:32.886Z,44.00
2018-08-30T08:33:35.931Z,38.00
2018-08-30T08:34:39.560Z,43.00
2018-08-30T08:35:43.699Z,41.50
2018-08-30T08:36:46.906Z,37.50
2018-08-30T08:37:51.621Z,37.25
2018-08-30T08:38:57.642Z,39.50
2018-08-30T08:40:00.874Z,34.50
2018-08-30T08:41:04.614Z,33.75
2018-08-30T08:42:07.694Z,41.25
2018-08-30T08:43:11.860Z,35.50
2018-08-30T08:44:14.940Z,34.00
2018-08-30T08:45:17.965Z,33.50
2018-08-30T08:46:22.727Z,36.50
2018-08-30T08:47:26.361Z,36.25
2018-08-30T08:48:29.644Z,35.75
2018-08-30T08:49:33.485Z,39.75
2018-08-30T08:50:36.530Z,47.25
2018-08-30T08:51:39.751Z,35.00
2018-08-30T08:52:45.164Z,33.00
2018-08-30T08:53:48.581Z,37.00
2018-08-30T08:54:52.683Z,39.25
2018-08-30T08:55:56.547Z,33.00
2018-08-30T08:56:59.863Z,33.25
2018-08-30T08:58:16.671Z,30.00
2018-08-30T08:59:20.660Z,31.50
2018-08-30T09:00:31.335Z,36.50
2018-08-30T09:01:35.483Z,29.50
2018-08-30T09:02:39.454Z,30.75
2018-08-30T09:03:43.113Z,32.00
2018-08-30T09:04:46.091Z,31.75
2018-08-30T09:05:50.030Z,36.00
2018-08-30T09:06:52.981Z,35.50
2018-08-30T09:07:56.098Z,31.50
2018-08-30T09:08:59.181Z,30.50
2018-08-30T09:10:02.212Z,35.50
2018-08-30T09:11:05.536Z,31.75
2018-08-30T09:12:08.973Z,32.00
2018-08-30T09:13:12.416Z,24.75
2018-08-30T09:14:15.402Z,30.50
2018-08-30T09:15:18.379Z,31.00
2018-08-30T09:16:22.391Z,27.75
2018-08-30T09:17:25.332Z,27.50
2018-08-30T09:18:29.835Z,26.25
2018-08-30T09:19:33.865Z,27.50
2018-08-30T09:20:37.390Z,26.25
2018-08-30T09:21:42.125Z,26.25
2018-08-30T09:22:45.864Z,29.75
2018-08-30T09:23:49.053Z,28.00
2018-08-30T09:24:52.342Z,21.50
2018-08-30T09:25:56.244Z,24.25
2018-08-30T09:27:00.234Z,24.25
2018-08-30T09:28:03.292Z,21.50
2018-08-30T09:29:06.993Z,29.75
2018-08-30T09:30:09.849Z,29.00
2018-08-30T09:31:13.285Z,27.00
2018-08-30T09:32:16.404Z,21.50
2018-08-30T09:33:21.544Z,22.50
2018-08-30T09:34:24.479Z,23.75
2018-08-30T09:35:27.470Z,26.50
2018-08-30T09:36:30.447Z,23.75
2018-08-30T09:37:33.954Z,20.75
2018-08-30T09:38:38.406Z,24.25
2018-08-30T09:39:41.271Z,22.75
2018-08-30T09:40:44.185Z,21.50
2018-08-30T09:41:47.692Z,25.75
2018-08-30T09:42:50.648Z,19.25
2018-08-30T09:43:54.074Z,20.50
2018-08-30T09:44:57.781Z,25.25
2018-08-30T09:46:02.096Z,26.25
2018-08-30T09:47:05.815Z,25.25
2018-08-30T09:48:09.607Z,25.25
2018-08-30T09:49:13.552Z,30.25
2018-08-30T09:50:16.972Z,29.25
2018-08-30T09:51:20.535Z,25.50
2018-08-30T09:52:26.088Z,23.50
2018-08-30T09:53:29.395Z,27.00
2018-08-30T09:54:32.253Z,24.00
2018-08-30T09:55:38.114Z,23.00
2018-08-30T09:56:41.511Z,21.75
2018-08-30T09:57:44.421Z,24.00
2018-08-30T09:58:47.369Z,21.50
2018-08-30T09:59:50.458Z,24.50
2018-08-30T10:00:58.184Z,24.25
2018-08-30T10:02:08.237Z,20.50
2018-08-30T10:03:11.165Z,21.25
2018-08-30T10:04:14.604Z,24.50
2018-08-30T10:05:17.652Z,22.50
2018-08-30T10:06:21.090Z,22.00
2018-08-30T10:07:23.979Z,37.00
2018-08-30T10:08:27.286Z,25.50
2018-08-30T10:09:30.620Z,29.25
2018-08-30T10:10:33.492Z,29.00
2018-08-30T10:11:36.376Z,32.25
2018-08-30T10:12:39.409Z,39.00
2018-08-30T10:13:42.318Z,43.25
2018-08-30T10:14:46.658Z,21.50
2018-08-30T10:15:49.660Z,24.50
2018-08-30T10:16:54.608Z,25.50
2018-08-30T10:17:57.592Z,30.25
2018-08-30T10:19:01.387Z,24.50
2018-08-30T10:20:04.302Z,21.50
2018-08-30T10:21:07.288Z,19.00
2018-08-30T10:22:11.181Z,23.25
2018-08-30T10:23:14.179Z,19.00
2018-08-30T10:24:17.085Z,18.25
2018-08-30T10:25:21.726Z,20.00
2018-08-30T10:26:24.995Z,16.25
2018-08-30T10:27:28.005Z,19.25
2018-08-30T10:28:32.158Z,21.50
2018-08-30T10:29:36.597Z,12.75
2018-08-30T10:30:39.533Z,21.75
2018-08-30T10:33:08.118Z,17.25
2018-08-30T10:34:11.960Z,19.25
2018-08-30T10:35:15.710Z,14.50
2018-08-30T10:36:21.645Z,18.75
2018-08-30T10:37:25.725Z,16.00
2018-08-30T10:38:33.200Z,17.00
2018-08-30T10:39:37.325Z,18.00
2018-08-30T10:40:40.291Z,20.25
2018-08-30T10:41:43.194Z,17.50
2018-08-30T10:42:47.276Z,17.75
2018-08-30T10:43:51.024Z,16.50
2018-08-30T10:44:54.156Z,16.25
2018-08-30T10:45:58.543Z,18.50
2018-08-30T10:47:02.085Z,16.75
2018-08-30T10:48:07.439Z,17.00
2018-08-30T10:49:10.858Z,17.50
2018-08-30T10:50:15.082Z,14.75
2018-08-30T10:51:20.365Z,17.25
2018-08-30T10:52:25.935Z,19.75
2018-08-30T10:54:53.114Z,20.00
2018-08-30T10:55:58.044Z,16.00
2018-08-30T10:57:02.891Z,22.75
2018-08-30T10:58:06.115Z,22.25
2018-08-30T10:59:10.070Z,21.25
2018-08-30T11:00:13.755Z,20.75
2018-08-30T11:01:16.642Z,25.25
2018-08-30T11:02:20.104Z,21.50
2018-08-30T11:03:23.509Z,18.00
2018-08-30T11:04:27.561Z,19.25
2018-08-30T11:05:31.956Z,20.25
2018-08-30T11:06:40.138Z,23.25
2018-08-30T11:07:43.220Z,20.75
2018-08-30T11:08:46.206Z,21.00
2018-08-30T11:09:49.709Z,19.75
2018-08-30T11:10:52.635Z,22.00
2018-08-30T11:11:56.404Z,22.00
2018-08-30T11:13:03.085Z,18.50
2018-08-30T11:14:06.813Z,21.00
2018-08-30T11:15:09.767Z,18.25
2018-08-30T11:16:13.249Z,26.25
2018-08-30T11:17:16.166Z,21.75
2018-08-30T11:18:19.102Z,16.75
2018-08-30T11:19:23.572Z,21.25
2018-08-30T11:20:26.469Z,19.25
2018-08-30T11:21:29.377Z,19.00
2018-08-30T11:22:34.610Z,21.50
2018-08-30T11:23:41.289Z,24.00
2018-08-30T11:24:44.576Z,19.50
2018-08-30T11:25:51.712Z,19.00
2018-08-30T11:26:58.638Z,19.25
2018-08-30T11:28:01.659Z,20.25
2018-08-30T11:29:04.905Z,15.50
2018-08-30T11:30:07.865Z,17.25
2018-08-30T11:31:10.867Z,21.00
2018-08-30T11:32:13.727Z,22.75
2018-08-30T11:33:16.615Z,21.00
2018-08-30T11:34:19.578Z,22.75
2018-08-30T11:35:22.999Z,24.00
2018-08-30T11:36:25.917Z,18.00
2018-08-30T11:37:29.683Z,21.50
2018-08-30T11:38:32.699Z,18.25
2018-08-30T11:39:35.609Z,19.00
2018-08-30T11:40:38.518Z,18.00
2018-08-30T11:41:41.933Z,26.25
2018-08-30T11:42:45.055Z,19.00
2018-08-30T11:43:48.936Z,18.75
2018-08-30T11:44:51.837Z,20.00
2018-08-30T11:45:54.957Z,19.75
2018-08-30T11:47:04.556Z,18.00
2018-08-30T11:48:07.504Z,21.25
2018-08-30T11:49:10.719Z,18.50
2018-08-30T11:50:15.633Z,18.00
2018-08-30T11:51:20.291Z,20.00
2018-08-30T11:52:24.595Z,19.25
2018-08-30T11:53:27.949Z,20.00
2018-08-30T11:54:31.411Z,18.00
2018-08-30T11:55:34.297Z,16.75
2018-08-30T11:56:38.723Z,16.00
2018-08-30T11:57:41.770Z,18.00
2018-08-30T11:58:44.711Z,19.50
2018-08-30T11:59:47.575Z,19.75
2018-08-30T12:00:51.977Z,21.00
2018-08-30T12:01:54.969Z,18.50
2018-08-30T12:02:58.916Z,24.00
2018-08-30T12:04:01.921Z,21.25
2018-08-30T12:05:06.433Z,19.25
2018-08-30T12:06:09.389Z,17.50
2018-08-30T12:07:13.733Z,18.50
2018-08-30T12:08:17.331Z,19.50
2018-08-30T12:09:20.480Z,21.00
2018-08-30T12:10:24.574Z,21.25
2018-08-30T12:11:28.737Z,25.00
2018-08-30T12:12:31.747Z,22.00
2018-08-30T12:13:34.606Z,21.25
2018-08-30T12:14:37.507Z,18.75
2018-08-30T12:15:40.445Z,19.75
2018-08-30T12:16:44.095Z,22.00
2018-08-30T12:17:50.692Z,22.00
2018-08-30T12:18:53.714Z,20.25
2018-08-30T12:19:57.353Z,23.00
2018-08-30T12:21:01.431Z,19.50
2018-08-30T12:22:05.729Z,24.00
2018-08-30T12:23:11.327Z,20.75
2018-08-30T12:24:14.380Z,22.75
2018-08-30T12:25:21.455Z,22.00
2018-08-30T12:26:25.314Z,22.75
2018-08-30T12:27:29.507Z,23.50
2018-08-30T12:28:34.718Z,22.50
2018-08-30T12:29:39.749Z,19.00
2018-08-30T12:30:44.638Z,19.50
2018-08-30T12:31:49.146Z,18.50
2018-08-30T12:32:53.581Z,20.50
2018-08-30T12:34:02.636Z,20.25
2018-08-30T12:35:05.716Z,18.25
2018-08-30T12:36:09.422Z,18.75
2018-08-30T12:37:12.418Z,21.75
2018-08-30T12:38:20.158Z,18.50
2018-08-30T12:39:25.200Z,15.75
2018-08-30T12:40:28.292Z,14.50
2018-08-30T12:41:32.202Z,11.75
2018-08-30T12:42:35.544Z,10.25
2018-08-30T12:43:38.949Z,10.50
2018-08-30T12:44:41.630Z,12.00
2018-08-30T12:45:44.554Z,11.75
2018-08-30T12:46:48.148Z,11.75
2018-08-30T12:47:51.597Z,11.00
2018-08-30T12:49:01.355Z,11.25
2018-08-30T12:50:04.402Z,10.25
2018-08-30T12:51:07.487Z,13.25
2018-08-30T12:52:10.644Z,13.00
2018-08-30T12:53:13.597Z,10.50
2018-08-30T12:54:16.626Z,13.50
2018-08-30T12:55:20.731Z,14.50
2018-08-30T12:56:23.864Z,11.50
2018-08-30T12:57:27.472Z,12.75
2018-08-30T12:58:30.506Z,11.75
2018-08-30T12:59:39.340Z,12.00
2018-08-30T13:00:42.192Z,13.75
2018-08-30T13:01:47.040Z,11.00
2018-08-30T13:02:49.945Z,11.00
2018-08-30T13:03:53.085Z,12.25
2018-08-30T13:04:56.178Z,11.00
2018-08-30T13:05:59.182Z,11.50
2018-08-30T13:07:02.123Z,10.75
2018-08-30T13:08:06.122Z,8.25
2018-08-30T13:09:12.913Z,11.00
2018-08-30T13:10:19.729Z,8.50
2018-08-30T13:11:22.854Z,8.00
2018-08-30T13:12:25.847Z,9.00
2018-08-30T13:13:29.455Z,8.00
2018-08-30T13:14:34.834Z,8.00
2018-08-30T13:15:38.827Z,8.00
2018-08-30T13:16:42.237Z,11.50
2018-08-30T13:17:46.690Z,12.25
2018-08-30T13:18:50.499Z,9.75
2018-08-30T13:19:53.480Z,7.00
2018-08-30T13:20:56.928Z,10.50
2018-08-30T13:22:01.734Z,8.25
2018-08-30T13:23:05.471Z,7.75
2018-08-30T13:24:09.829Z,8.50
2018-08-30T13:25:14.361Z,11.00
2018-08-30T13:26:19.669Z,10.50
2018-08-30T13:27:24.079Z,11.00
2018-08-30T13:28:27.233Z,7.75
2018-08-30T13:29:31.888Z,7.00
2018-08-30T13:30:35.928Z,7.25
2018-08-30T13:31:41.936Z,9.00
2018-08-30T13:32:46.802Z,6.00
2018-08-30T13:33:51.825Z,7.00
2018-08-30T13:34:55.839Z,7.00
2018-08-30T13:35:58.813Z,7.00
2018-08-30T13:37:03.610Z,7.25
2018-08-30T13:38:06.603Z,9.75
2018-08-30T13:39:11.081Z,7.00
2018-08-30T13:40:14.173Z,7.00
2018-08-30T13:41:18.057Z,8.00
2018-08-30T13:42:21.712Z,9.50
2018-08-30T13:43:27.460Z,10.25
2018-08-30T13:44:30.674Z,7.00
2018-08-30T13:45:34.568Z,5.50
2018-08-30T13:46:38.531Z,7.75
2018-08-30T13:47:41.762Z,7.00
2018-08-30T13:48:46.075Z,9.00
2018-08-30T13:49:49.213Z,4.00
2018-08-30T13:50:53.207Z,8.00
2018-08-30T13:51:59.638Z,4.75
2018-08-30T13:53:04.094Z,7.25
2018-08-30T13:54:11.597Z,6.00
2018-08-30T13:55:17.261Z,7.50
2018-08-30T13:56:21.094Z,6.25
2018-08-30T13:57:24.321Z,8.75
2018-08-30T13:58:28.169Z,7.50